TimeEST,TemperatureF,Dew PointF,Humidity,Sea Level PressureIn,VisibilityMPH,Wind Direction,Wind SpeedMPH,Gust SpeedMPH,PrecipitationIn,Events,Conditions,WindDirDegrees,DateUTC
12:53 AM,6.1,1.0,80,30.32,10.0,South,3.5,-,N/A,,Mostly Cloudy,170,2013-02-11 05:53:00
1:53 AM,6.1,1.0,80,30.30,10.0,Calm,Calm,-,N/A,,Clear,0,2013-02-11 06:53:00
2:53 AM,7.0,1.9,80,30.28,10.0,Calm,Calm,-,N/A,,Clear,0,2013-02-11 07:53:00
3:53 AM,10.9,5.0,77,30.25,9.0,Calm,Calm,-,N/A,,Partly Cloudy,0,2013-02-11 08:53:00
4:53 AM,12.0,6.1,77,30.20,10.0,Calm,Calm,-,N/A,,Clear,0,2013-02-11 09:53:00
5:53 AM,12.9,6.1,74,30.19,10.0,Calm,Calm,-,N/A,,Overcast,0,2013-02-11 10:53:00
6:53 AM,14.0,7.0,74,30.16,10.0,Calm,Calm,-,N/A,,Overcast,0,2013-02-11 11:53:00
7:53 AM,16.0,9.0,74,30.14,9.0,North,3.5,-,N/A,,Overcast,10,2013-02-11 12:53:00
8:45 AM,17.6,10.4,73,30.05,10.0,Calm,Calm,-,0.01,Snow,Light Snow,0,2013-02-11 13:45:00
8:53 AM,19.0,10.9,71,30.10,3.0,Calm,Calm,-,0.01,Snow,Light Snow,0,2013-02-11 13:53:00
9:01 AM,19.4,10.4,68,30.04,2.0,Calm,Calm,-,0.00,Snow,Light Snow,0,2013-02-11 14:01:00
9:13 AM,19.4,12.2,74,30.04,1.8,Calm,Calm,-,0.00,Snow,Light Snow,0,2013-02-11 14:13:00
9:34 AM,19.4,12.2,74,30.02,0.5,NE,4.6,-,0.01,Snow,Snow,50,2013-02-11 14:34:00
9:53 AM,21.0,16.0,81,30.06,0.5,NNE,3.5,-,0.02,Snow,Snow,20,2013-02-11 14:53:00
10:06 AM,19.4,15.8,86,29.99,0.8,NNE,3.5,-,0.01,Snow,Light Snow,20,2013-02-11 15:06:00
10:14 AM,21.2,15.8,80,29.98,1.0,NE,3.5,-,0.01,Snow,Light Snow,40,2013-02-11 15:14:00
10:53 AM,21.9,18.0,85,30.01,1.0,Calm,Calm,-,0.03,Snow,Light Snow,0,2013-02-11 15:53:00
11:20 AM,21.2,17.6,86,29.93,0.5,Calm,Calm,-,0.02,Fog-Snow,Light Snow,0,2013-02-11 16:20:00
11:30 AM,23.0,19.4,86,29.91,2.0,Calm,Calm,-,0.02,Snow,Light Snow,0,2013-02-11 16:30:00
11:39 AM,24.8,19.4,80,29.90,3.0,Calm,Calm,-,0.03,Snow,Light Snow,0,2013-02-11 16:39:00
11:46 AM,24.8,19.4,80,29.90,2.5,Calm,Calm,-,0.03,Snow,Light Snow,0,2013-02-11 16:46:00
11:53 AM,25.0,21.0,85,29.94,3.0,Calm,Calm,-,0.03,,Overcast,0,2013-02-11 16:53:00
12:10 PM,24.8,21.2,86,29.87,3.0,Calm,Calm,-,0.00,,Overcast,0,2013-02-11 17:10:00
12:53 PM,26.1,21.9,84,29.89,7.0,Calm,Calm,-,0.01,,Overcast,0,2013-02-11 17:53:00
1:29 PM,28.4,26.6,93,29.80,2.0,Calm,Calm,-,N/A,,Overcast,0,2013-02-11 18:29:00
1:53 PM,28.0,25.0,88,29.84,2.5,NE,4.6,-,N/A,,Overcast,40,2013-02-11 18:53:00
2:04 PM,28.4,26.6,93,29.79,3.0,NE,3.5,-,N/A,,Overcast,50,2013-02-11 19:04:00
2:12 PM,28.4,26.6,93,29.79,2.5,Calm,Calm,-,N/A,,Overcast,0,2013-02-11 19:12:00
2:23 PM,28.4,26.6,93,29.77,1.5,Variable,5.8,-,N/A,,Overcast,0,2013-02-11 19:23:00
2:33 PM,28.4,26.6,93,29.77,3.0,NE,9.2,-,N/A,,Overcast,50,2013-02-11 19:33:00
2:53 PM,30.0,26.1,85,29.78,9.0,NE,10.4,-,N/A,,Overcast,50,2013-02-11 19:53:00
3:53 PM,30.0,26.1,85,29.75,10.0,ENE,4.6,-,N/A,,Overcast,60,2013-02-11 20:53:00
4:53 PM,30.9,26.1,82,29.73,10.0,Calm,Calm,-,N/A,,Overcast,0,2013-02-11 21:53:00
5:00 PM,30.2,26.6,86,29.69,9.0,Calm,Calm,-,N/A,,Overcast,0,2013-02-11 22:00:00
5:53 PM,30.0,27.0,88,29.70,9.0,Calm,Calm,-,N/A,,Overcast,0,2013-02-11 22:53:00
6:53 PM,30.9,27.0,85,29.69,5.0,North,5.8,-,N/A,,Overcast,10,2013-02-11 23:53:00
7:11 PM,30.2,28.4,93,29.65,2.5,Calm,Calm,-,N/A,,Overcast,0,2013-02-12 00:11:00
7:21 PM,30.2,28.4,93,29.65,1.5,Calm,Calm,-,N/A,,Overcast,0,2013-02-12 00:21:00
7:53 PM,30.0,28.0,92,29.66,0.8,Calm,Calm,-,N/A,,Overcast,0,2013-02-12 00:53:00
8:11 PM,30.2,28.4,93,29.63,0.8,Calm,Calm,-,N/A,,Mist,0,2013-02-12 01:11:00
8:53 PM,30.9,28.0,89,29.67,0.5,Calm,Calm,-,N/A,Fog,Light Freezing Fog,0,2013-02-12 01:53:00
9:28 PM,30.2,28.4,93,29.63,1.5,Calm,Calm,-,N/A,,Overcast,0,2013-02-12 02:28:00
9:41 PM,30.2,28.4,93,29.62,2.0,Calm,Calm,-,N/A,,Overcast,0,2013-02-12 02:41:00
9:48 PM,30.2,28.4,93,29.63,1.2,Calm,Calm,-,N/A,,Overcast,0,2013-02-12 02:48:00
9:53 PM,30.9,28.0,89,29.67,0.8,Calm,Calm,-,N/A,,Overcast,0,2013-02-12 02:53:00
10:32 PM,30.2,28.4,93,29.62,1.5,Calm,Calm,-,N/A,,Overcast,0,2013-02-12 03:32:00
10:47 PM,30.2,28.4,93,29.61,2.5,South,3.5,-,N/A,,Overcast,180,2013-02-12 03:47:00
10:51 PM,30.2,28.4,93,29.61,3.0,South,3.5,-,N/A,,Overcast,180,2013-02-12 03:51:00
11:16 PM,30.2,28.4,93,29.59,1.8,Calm,Calm,-,N/A,,Overcast,0,2013-02-12 04:16:00
11:30 PM,30.2,26.6,86,29.58,3.0,Variable,6.9,-,N/A,,Overcast,0,2013-02-12 04:30:00
11:53 PM,32.0,28.9,88,29.62,5.0,North,5.8,-,N/A,,Overcast,350,2013-02-12 04:53:00
11:57 PM,30.2,28.4,93,29.59,2.5,North,5.8,-,N/A,,Overcast,350,2013-02-12 04:57:00